Time;durP1;ratioP1;P1;durP2;ratioP2;P2;SDS_P1;SDS_P2;PMS_P1;PMS_P2;Temp;Humidity;BMP_temperature;BMP_pressure;BME280_temperature;BME280_humidity;BME280_pressure;Samples;Min_cycle;Max_cycle;Signal;HPM_P1;HPM_P2
2023/09/07 00:00:01;;;;;;;2.63;2.40;;;20.70;99.90;;;;;;5156865;27;20554;-81
2023/09/07 00:02:27;;;;;;;3.28;1.95;;;20.60;99.90;;;;;;5142802;27;20027;-81
2023/09/07 00:04:52;;;;;;;2.45;2.15;;;20.60;99.90;;;;;;5134943;27;20554;-81
2023/09/07 00:07:18;;;;;;;5.38;2.50;;;20.60;99.90;;;;;;5149647;27;20042;-80
2023/09/07 00:09:45;;;;;;;5.38;2.17;;;20.50;99.90;;;;;;5131565;27;20039;-80
2023/09/07 00:12:10;;;;;;;2.80;2.60;;;20.50;99.90;;;;;;5125509;27;20058;-81
2023/09/07 00:14:36;;;;;;;3.40;2.20;;;20.50;99.90;;;;;;5155544;27;20031;-80
2023/09/07 00:17:02;;;;;;;4.25;2.45;;;20.40;99.90;;;;;;5134614;27;20497;-81
2023/09/07 00:19:29;;;;;;;3.35;2.50;;;20.40;99.90;;;;;;5153811;27;20517;-81
2023/09/07 00:21:55;;;;;;;3.05;2.45;;;20.50;99.90;;;;;;5128567;27;20038;-80
2023/09/07 00:24:23;;;;;;;3.78;2.40;;;20.30;99.90;;;;;;5152278;27;20052;-81
2023/09/07 00:26:48;;;;;;;3.17;2.40;;;20.40;99.90;;;;;;5148796;27;20062;-80
2023/09/07 00:29:14;;;;;;;3.15;2.15;;;20.40;99.90;;;;;;5132053;27;20046;-80
2023/09/07 00:31:41;;;;;;;2.60;2.40;;;20.30;99.90;;;;;;5131795;27;20489;-81
2023/09/07 00:34:06;;;;;;;4.20;2.70;;;20.30;99.90;;;;;;5153134;27;20035;-81
2023/09/07 00:36:32;;;;;;;3.92;2.55;;;20.30;99.90;;;;;;5130438;27;20090;-79
2023/09/07 00:38:58;;;;;;;2.85;2.60;;;20.30;99.90;;;;;;5147896;27;20041;-80
2023/09/07 00:41:23;;;;;;;4.60;2.25;;;20.30;99.90;;;;;;5146769;27;20173;-80
2023/09/07 00:43:49;;;;;;;4.07;2.28;;;20.20;99.90;;;;;;5128465;27;20399;-80
2023/09/07 00:46:15;;;;;;;2.40;2.20;;;20.20;99.90;;;;;;5150417;27;20042;-80
2023/09/07 00:48:41;;;;;;;3.20;2.40;;;20.10;99.90;;;;;;5152539;27;20099;-82
2023/09/07 00:51:07;;;;;;;2.90;2.17;;;20.00;99.90;;;;;;5140271;27;20490;-80
2023/09/07 00:53:33;;;;;;;3.85;2.38;;;20.10;99.90;;;;;;5145772;27;20039;-81
2023/09/07 00:55:59;;;;;;;4.00;1.95;;;20.90;99.90;;;;;;5153201;27;20042;-81
2023/09/07 00:58:25;;;;;;;2.30;2.10;;;20.00;99.90;;;;;;5143960;27;20100;-80
2023/09/07 01:00:51;;;;;;;5.03;2.53;;;20.00;99.90;;;;;;5151518;27;20130;-81
2023/09/07 01:03:16;;;;;;;2.55;1.90;;;19.90;99.90;;;;;;5132013;27;20070;-80
2023/09/07 01:06:06;;;;;;;3.17;2.25;;;20.00;99.90;;;;;;5129013;27;20077;-81
2023/09/07 01:08:47;;;;;;;3.28;2.97;;;20.00;99.90;;;;;;5144639;27;20130;-80
2023/09/07 01:11:22;;;;;;;2.70;2.50;;;20.00;99.90;;;;;;5149455;27;20038;-80
2023/09/07 01:13:52;;;;;;;2.80;2.58;;;19.90;99.90;;;;;;5128138;27;20043;-81
2023/09/07 01:16:20;;;;;;;4.47;2.90;;;19.80;99.90;;;;;;5144610;27;20109;-80
2023/09/07 01:18:48;;;;;;;4.95;2.60;;;19.90;99.90;;;;;;5143623;27;20039;-80
2023/09/07 01:21:14;;;;;;;3.15;2.75;;;19.80;99.90;;;;;;5150234;27;20046;-79
2023/09/07 01:23:41;;;;;;;3.10;2.83;;;19.80;99.90;;;;;;5142463;27;20049;-79
2023/09/07 01:26:09;;;;;;;3.05;2.75;;;19.70;99.90;;;;;;5143074;27;20072;-80
2023/09/07 01:28:36;;;;;;;3.40;3.17;;;19.80;99.90;;;;;;5145822;27;20461;-80
2023/09/07 01:31:03;;;;;;;3.13;2.85;;;19.80;99.90;;;;;;5144473;27;20043;-79
2023/09/07 01:33:29;;;;;;;3.95;3.55;;;19.80;99.90;;;;;;5152732;27;20042;-79
2023/09/07 01:35:55;;;;;;;3.60;3.00;;;19.70;99.90;;;;;;5151890;27;20042;-80
2023/09/07 01:38:21;;;;;;;3.22;2.85;;;19.70;99.90;;;;;;5150862;27;20424;-80
2023/09/07 01:40:47;;;;;;;5.53;3.40;;;19.70;99.90;;;;;;5146123;27;20063;-80
2023/09/07 01:43:12;;;;;;;5.28;3.55;;;19.70;99.90;;;;;;5150711;27;20046;-79
2023/09/07 01:45:38;;;;;;;4.03;3.42;;;19.70;99.90;;;;;;5130429;27;20039;-80
2023/09/07 01:48:09;;;;;;;4.70;3.50;;;19.70;99.90;;;;;;5147568;27;20059;-80
2023/09/07 01:50:34;;;;;;;6.28;3.95;;;19.60;99.90;;;;;;5159097;27;20504;-79
2023/09/07 01:53:00;;;;;;;4.00;3.60;;;19.60;99.90;;;;;;5149831;27;20039;-80
2023/09/07 01:55:27;;;;;;;4.50;3.05;;;19.60;99.90;;;;;;5151250;27;20087;-80
2023/09/07 01:57:53;;;;;;;5.32;3.17;;;19.50;99.90;;;;;;5149605;27;20502;-80
2023/09/07 02:00:18;;;;;;;4.03;3.15;;;19.50;99.90;;;;;;5143275;27;20054;-80
2023/09/07 02:02:44;;;;;;;3.65;3.05;;;19.50;99.90;;;;;;5150417;27;20035;-81
2023/09/07 02:05:10;;;;;;;6.22;3.42;;;19.50;99.90;;;;;;5151997;27;20037;-81
2023/09/07 02:07:35;;;;;;;6.47;3.60;;;19.50;99.90;;;;;;5119085;27;20394;-81
2023/09/07 02:10:03;;;;;;;4.32;3.38;;;19.40;99.90;;;;;;5141537;27;20493;-80
2023/09/07 02:12:29;;;;;;;6.53;3.60;;;19.40;99.90;;;;;;5131273;27;20038;-81
2023/09/07 02:14:55;;;;;;;3.88;3.22;;;19.40;99.90;;;;;;5123180;27;20031;-80
2023/09/07 02:17:21;;;;;;;3.88;3.10;;;19.40;99.90;;;;;;5130494;27;20042;-80
2023/09/07 02:19:47;;;;;;;4.43;3.70;;;19.40;99.90;;;;;;5146780;27;20398;-80
2023/09/07 02:22:13;;;;;;;6.07;3.30;;;19.30;99.90;;;;;;5132686;27;20031;-80
2023/09/07 02:24:39;;;;;;;3.63;3.05;;;19.30;99.90;;;;;;5147083;27;20091;-79
2023/09/07 02:27:04;;;;;;;5.13;3.30;;;19.30;99.90;;;;;;5149141;27;20439;-80
2023/09/07 02:29:30;;;;;;;4.13;3.60;;;19.30;99.90;;;;;;5150866;27;20063;-80
2023/09/07 02:31:56;;;;;;;3.78;3.42;;;19.20;99.90;;;;;;5150620;27;20471;-79
2023/09/07 02:34:22;;;;;;;7.00;3.67;;;19.20;99.90;;;;;;5148024;27;20416;-80
2023/09/07 02:36:48;;;;;;;4.00;3.42;;;19.20;99.90;;;;;;5120682;27;20052;-80
2023/09/07 02:39:13;;;;;;;3.83;3.55;;;19.20;99.90;;;;;;5151059;27;20106;-80
2023/09/07 02:41:39;;;;;;;3.63;3.33;;;19.20;99.90;;;;;;5148754;27;20300;-80
2023/09/07 02:44:05;;;;;;;6.55;3.58;;;19.20;99.90;;;;;;5148377;27;20568;-80
2023/09/07 02:46:31;;;;;;;4.25;3.85;;;19.10;99.90;;;;;;5130099;27;20045;-79
2023/09/07 02:48:59;;;;;;;4.68;3.00;;;19.10;99.90;;;;;;5146021;27;20042;-80
2023/09/07 02:51:25;;;;;;;3.88;3.58;;;19.10;99.90;;;;;;5138639;27;20125;-80
2023/09/07 02:53:51;;;;;;;4.88;3.35;;;19.00;99.90;;;;;;5144909;27;20038;-79
2023/09/07 02:56:17;;;;;;;5.68;3.85;;;18.90;99.90;;;;;;5147345;27;20142;-81
2023/09/07 02:58:43;;;;;;;3.33;3.13;;;18.90;99.90;;;;;;5147275;27;20035;-80
2023/09/07 03:01:09;;;;;;;3.83;3.40;;;18.90;99.90;;;;;;5125233;27;20047;-79
2023/09/07 03:03:35;;;;;;;5.40;3.80;;;19.10;99.90;;;;;;5128066;27;20039;-81
2023/09/07 03:06:11;;;;;;;4.25;3.85;;;18.80;99.90;;;;;;5140253;27;20043;-81
2023/09/07 03:08:37;;;;;;;6.50;4.03;;;18.80;99.90;;;;;;5143691;27;20031;-80
2023/09/07 03:11:04;;;;;;;4.85;3.78;;;18.80;99.90;;;;;;5145332;27;20034;-80
2023/09/07 03:13:30;;;;;;;8.05;4.60;;;18.80;99.90;;;;;;5146897;27;20058;-80
2023/09/07 03:15:56;;;;;;;4.80;3.97;;;18.80;99.90;;;;;;5120356;27;20157;-80
2023/09/07 03:18:22;;;;;;;5.53;3.95;;;18.80;99.90;;;;;;5150367;27;20114;-80
2023/09/07 03:20:48;;;;;;;4.53;3.55;;;18.80;99.90;;;;;;5137024;27;20043;-80
2023/09/07 03:23:13;;;;;;;5.80;3.38;;;18.80;99.90;;;;;;5109956;27;20046;-81
2023/09/07 03:25:39;;;;;;;8.73;4.40;;;18.80;99.90;;;;;;5145712;27;20046;-81
2023/09/07 03:28:05;;;;;;;4.72;4.22;;;18.70;99.90;;;;;;5136561;27;20050;-80
2023/09/07 03:30:30;;;;;;;4.95;3.53;;;18.70;99.90;;;;;;5160063;27;20378;-80
2023/09/07 03:32:56;;;;;;;5.88;4.20;;;18.60;99.90;;;;;;5152537;27;20114;-80
2023/09/07 03:35:22;;;;;;;4.32;3.95;;;18.60;99.90;;;;;;5147426;27;20498;-80
2023/09/07 03:37:47;;;;;;;4.53;3.65;;;18.60;99.90;;;;;;5146340;27;20035;-80
2023/09/07 03:40:13;;;;;;;5.47;4.45;;;18.70;99.90;;;;;;5141963;27;20034;-80
2023/09/07 03:42:39;;;;;;;8.02;3.45;;;18.50;99.90;;;;;;5124408;27;20151;-80
2023/09/07 03:45:05;;;;;;;5.70;3.92;;;18.50;99.90;;;;;;5130051;27;20395;-81
2023/09/07 03:47:31;;;;;;;4.65;3.70;;;18.50;99.90;;;;;;5147856;27;20041;-80
2023/09/07 03:50:00;;;;;;;7.43;4.88;;;18.50;99.90;;;;;;5126180;27;20035;-81
2023/09/07 03:52:27;;;;;;;5.72;4.65;;;18.40;99.90;;;;;;5148124;27;20039;-80
2023/09/07 03:54:56;;;;;;;5.95;4.10;;;19.30;99.90;;;;;;5132421;27;20066;-81
2023/09/07 03:57:23;;;;;;;4.45;4.15;;;18.40;99.90;;;;;;5149586;27;20047;-80
2023/09/07 03:59:49;;;;;;;10.43;5.22;;;18.30;99.90;;;;;;5130550;27;20102;-81
2023/09/07 04:02:17;;;;;;;4.53;4.22;;;18.50;99.90;;;;;;5128980;27;20442;-81
2023/09/07 04:04:43;;;;;;;9.60;4.80;;;18.30;99.90;;;;;;5131645;27;20130;-82
2023/09/07 04:07:09;;;;;;;4.65;4.03;;;18.30;99.90;;;;;;5138572;27;20035;-82
2023/09/07 04:09:35;;;;;;;7.43;4.32;;;18.20;99.90;;;;;;5140545;27;20027;-82
2023/09/07 04:12:00;;;;;;;4.45;4.05;;;18.20;99.90;;;;;;5145641;27;20046;-82
2023/09/07 04:14:28;;;;;;;4.97;4.43;;;18.20;99.90;;;;;;5121395;27;20035;-82
2023/09/07 04:16:53;;;;;;;6.25;4.55;;;18.30;99.90;;;;;;5145937;27;20430;-80
2023/09/07 04:19:19;;;;;;;6.57;4.13;;;18.20;99.90;;;;;;5150320;27;20027;-79
2023/09/07 04:21:45;;;;;;;5.20;4.68;;;18.20;99.90;;;;;;5153231;27;20070;-82
2023/09/07 04:24:10;;;;;;;6.18;4.88;;;18.10;99.90;;;;;;5145686;27;20177;-79
2023/09/07 04:26:37;;;;;;;7.18;4.88;;;18.10;99.90;;;;;;5146868;27;20057;-80
2023/09/07 04:29:03;;;;;;;7.80;5.03;;;18.10;99.90;;;;;;5147146;27;20043;-80
2023/09/07 04:31:30;;;;;;;7.05;4.53;;;18.10;99.90;;;;;;5140829;27;20390;-80
2023/09/07 04:33:55;;;;;;;5.13;4.72;;;18.10;99.90;;;;;;5148302;27;20077;-80
2023/09/07 04:36:21;;;;;;;7.10;5.05;;;18.10;99.90;;;;;;5152205;27;20066;-81
2023/09/07 04:38:47;;;;;;;6.32;4.82;;;18.70;99.90;;;;;;5153359;27;20137;-81
2023/09/07 04:41:14;;;;;;;8.38;5.38;;;18.00;99.90;;;;;;5153575;27;20047;-79
2023/09/07 04:43:44;;;;;;;6.15;5.55;;;18.00;99.90;;;;;;5145790;27;20046;-83
2023/09/07 04:46:12;;;;;;;5.85;4.97;;;17.90;99.90;;;;;;5140967;27;20043;-85
2023/09/07 04:48:39;;;;;;;5.32;4.93;;;17.90;99.90;;;;;;4418038;27;10000665;-83
2023/09/07 04:51:06;;;;;;;5.32;4.18;;;17.90;99.90;;;;;;5133009;27;20503;-84
2023/09/07 04:53:38;;;;;;;6.07;5.00;;;17.90;99.90;;;;;;5150080;27;20039;-86
2023/09/07 04:56:05;;;;;;;6.63;5.20;;;17.80;99.90;;;;;;5152782;27;20076;-82
2023/09/07 04:58:34;;;;;;;9.88;5.80;;;17.90;99.90;;;;;;5142340;27;20089;-84
2023/09/07 05:01:15;;;;;;;6.32;5.18;;;17.90;99.90;;;;;;5150607;27;20097;-84
2023/09/07 05:03:51;;;;;;;7.88;5.40;;;18.10;99.90;;;;;;5157199;27;20042;-85
2023/09/07 05:06:16;;;;;;;7.38;4.82;;;17.70;99.90;;;;;;5147755;27;20030;-85
2023/09/07 05:08:42;;;;;;;8.80;5.68;;;17.80;99.90;;;;;;5162765;27;20042;-85
2023/09/07 05:11:07;;;;;;;5.60;5.10;;;17.80;99.90;;;;;;5150100;22;20350;-84
2023/09/07 05:13:33;;;;;;;7.32;5.07;;;17.70;99.90;;;;;;5064203;28;20390;-84
2023/09/07 05:16:01;;;;;;;5.78;5.28;;;17.70;99.90;;;;;;5044100;28;20067;-84
2023/09/07 05:18:30;;;;;;;5.97;4.93;;;17.70;99.90;;;;;;5064776;28;20102;-84
2023/09/07 05:21:14;;;;;;;9.27;5.95;;;17.70;99.90;;;;;;5069540;28;20394;-83
2023/09/07 05:23:41;;;;;;;10.48;5.35;;;17.70;99.90;;;;;;5059008;28;20064;-85
2023/09/07 05:26:07;;;;;;;7.00;5.10;;;17.70;99.90;;;;;;5057889;28;20758;-81
2023/09/07 05:28:33;;;;;;;5.60;4.60;;;17.70;99.90;;;;;;5073141;28;20032;-84
2023/09/07 05:30:59;;;;;;;5.43;4.88;;;17.70;99.90;;;;;;5069426;28;20037;-84
2023/09/07 05:33:24;;;;;;;5.18;4.43;;;17.70;99.90;;;;;;5067702;28;20039;-85
2023/09/07 05:35:50;;;;;;;6.57;4.80;;;17.70;99.90;;;;;;5069530;28;20076;-84
2023/09/07 05:38:16;;;;;;;5.80;4.93;;;17.60;99.90;;;;;;5066456;28;20102;-84
2023/09/07 05:40:43;;;;;;;9.75;5.30;;;17.70;99.90;;;;;;5065920;28;20048;-84
2023/09/07 05:43:11;;;;;;;5.70;4.95;;;17.80;99.90;;;;;;5066816;28;20481;-84
2023/09/07 05:45:41;;;;;;;8.75;5.47;;;17.70;99.90;;;;;;5070839;28;20106;-84
2023/09/07 05:48:07;;;;;;;9.30;5.22;;;17.70;99.90;;;;;;5035340;22;20060;-84
2023/09/07 05:50:37;;;;;;;6.72;4.80;;;17.70;99.90;;;;;;5031556;28;20045;-85
2023/09/07 05:53:04;;;;;;;6.28;5.30;;;17.70;99.90;;;;;;5025120;28;20065;-83
2023/09/07 05:55:30;;;;;;;8.07;5.47;;;17.70;99.90;;;;;;5022795;28;20033;-84
2023/09/07 05:57:57;;;;;;;5.85;5.35;;;18.30;99.90;;;;;;5022610;28;20132;-84
2023/09/07 06:00:23;;;;;;;9.82;5.88;;;17.70;99.90;;;;;;5022497;28;20076;-88
2023/09/07 06:02:52;;;;;;;9.15;5.30;;;17.70;99.90;;;;;;5004892;28;20120;-85
2023/09/07 06:05:18;;;;;;;9.60;5.18;;;17.80;99.90;;;;;;5021872;28;20046;-83
2023/09/07 06:07:44;;;;;;;5.30;4.80;;;17.80;99.90;;;;;;5018768;28;20116;-85
2023/09/07 06:10:10;;;;;;;5.70;5.10;;;17.80;99.90;;;;;;5030387;28;20179;-83
2023/09/07 06:12:36;;;;;;;5.60;5.10;;;17.90;99.90;;;;;;5026308;28;20515;-82
2023/09/07 06:15:02;;;;;;;6.78;5.80;;;18.30;99.90;;;;;;5024205;28;20057;-86
2023/09/07 06:17:28;;;;;;;6.03;5.15;;;17.90;99.90;;;;;;5030768;28;20038;-88
2023/09/07 06:19:54;;;;;;;6.75;6.00;;;17.90;99.90;;;;;;5021267;28;20120;-83
2023/09/07 06:22:20;;;;;;;5.75;5.13;;;18.00;99.90;;;;;;5018209;28;20038;-83
2023/09/07 06:24:46;;;;;;;8.77;6.47;;;18.00;99.90;;;;;;5035721;28;20045;-85
2023/09/07 06:27:11;;;;;;;6.53;5.80;;;18.40;99.90;;;;;;5019646;28;20139;-85
2023/09/07 06:29:37;;;;;;;10.77;5.90;;;18.00;99.90;;;;;;5026756;28;20041;-84
2023/09/07 06:32:03;;;;;;;6.10;5.50;;;18.10;99.90;;;;;;5030340;28;20089;-82
2023/09/07 06:34:28;;;;;;;8.02;6.38;;;18.10;99.90;;;;;;5023193;28;20068;-83
2023/09/07 06:36:54;;;;;;;7.55;5.93;;;18.10;99.90;;;;;;5019710;28;20541;-82
2023/09/07 06:39:20;;;;;;;7.32;5.90;;;18.10;99.90;;;;;;5024482;28;20052;-82
2023/09/07 06:41:47;;;;;;;6.20;5.65;;;18.20;99.90;;;;;;5020966;28;20040;-82
2023/09/07 06:44:13;;;;;;;6.78;6.00;;;18.20;99.90;;;;;;5023379;28;20046;-82
2023/09/07 06:46:39;;;;;;;10.45;6.10;;;18.30;99.90;;;;;;5027593;28;20042;-83
2023/09/07 06:49:05;;;;;;;7.03;6.07;;;18.30;99.90;;;;;;5028050;28;21102;-84
2023/09/07 06:51:31;;;;;;;6.95;5.90;;;18.40;99.90;;;;;;5001690;28;20046;-82
2023/09/07 06:53:57;;;;;;;6.95;5.72;;;18.40;99.90;;;;;;5020646;28;20053;-84
2023/09/07 06:56:23;;;;;;;7.82;5.53;;;18.40;99.90;;;;;;5022786;28;20056;-82
2023/09/07 06:58:48;;;;;;;6.28;5.70;;;18.50;99.90;;;;;;5021546;28;20908;-82
2023/09/07 07:01:15;;;;;;;10.43;6.45;;;18.50;99.90;;;;;;5019009;28;20041;-82
2023/09/07 07:03:40;;;;;;;6.18;5.45;;;18.60;99.90;;;;;;5023449;28;20448;-85
2023/09/07 07:06:06;;;;;;;11.10;5.82;;;18.60;99.90;;;;;;5027339;28;20113;-83
2023/09/07 07:08:32;;;;;;;6.75;5.93;;;18.70;99.90;;;;;;5017292;28;20042;-85
2023/09/07 07:10:58;;;;;;;6.45;5.35;;;18.80;99.90;;;;;;5001139;28;20494;-85
2023/09/07 07:13:23;;;;;;;10.93;6.00;;;18.80;99.90;;;;;;5026557;28;20112;-82
2023/09/07 07:15:49;;;;;;;9.85;6.00;;;18.80;99.90;;;;;;5021848;28;20033;-84
2023/09/07 07:18:14;;;;;;;7.22;5.40;;;18.90;99.90;;;;;;5017674;28;20151;-82
2023/09/07 07:20:43;;;;;;;8.30;6.25;;;18.90;99.90;;;;;;5018797;28;20056;-83
2023/09/07 07:23:15;;;;;;;8.10;5.35;;;19.00;99.90;;;;;;5024831;28;20489;-82
2023/09/07 07:25:41;;;;;;;7.25;5.57;;;19.10;99.90;;;;;;5022457;28;20152;-82
2023/09/07 07:28:07;;;;;;;9.13;5.68;;;19.10;99.90;;;;;;5018690;28;20120;-83
2023/09/07 07:30:38;;;;;;;8.80;5.80;;;19.20;99.90;;;;;;5023185;28;20046;-84
2023/09/07 07:33:04;;;;;;;6.75;5.68;;;19.20;99.90;;;;;;5022410;28;20033;-84
2023/09/07 07:35:30;;;;;;;6.85;5.60;;;19.30;99.90;;;;;;5022733;28;20037;-82
2023/09/07 07:37:56;;;;;;;6.50;5.18;;;19.40;99.90;;;;;;5020749;28;20090;-82
2023/09/07 07:40:22;;;;;;;5.68;5.18;;;19.50;99.90;;;;;;5017290;28;20125;-83
2023/09/07 07:42:48;;;;;;;5.70;5.25;;;19.50;99.90;;;;;;5007048;28;20154;-81
2023/09/07 07:45:14;;;;;;;5.32;4.80;;;19.60;99.90;;;;;;5018546;28;20616;-82
2023/09/07 07:47:41;;;;;;;10.00;6.10;;;19.70;99.90;;;;;;5017160;28;20115;-83
2023/09/07 07:50:07;;;;;;;5.75;5.35;;;19.80;99.90;;;;;;5020442;28;20046;-85
2023/09/07 07:52:33;;;;;;;6.35;5.60;;;19.80;99.90;;;;;;5021558;28;20550;-83
2023/09/07 07:54:59;;;;;;;6.65;4.68;;;19.90;99.90;;;;;;5022179;28;20128;-83
2023/09/07 07:57:25;;;;;;;9.20;4.80;;;20.00;99.90;;;;;;5022224;28;20497;-84
2023/09/07 07:59:50;;;;;;;9.98;5.15;;;20.10;99.90;;;;;;5020916;28;20489;-82
2023/09/07 08:02:16;;;;;;;5.70;4.38;;;20.20;99.90;;;;;;5018114;28;20046;-82
2023/09/07 08:04:42;;;;;;;4.53;4.13;;;20.20;99.90;;;;;;5022008;28;20051;-82
2023/09/07 08:07:08;;;;;;;5.97;4.68;;;20.30;99.90;;;;;;5019707;28;20077;-81
2023/09/07 08:09:34;;;;;;;5.03;4.30;;;20.40;99.90;;;;;;5022408;28;20116;-81
2023/09/07 08:12:04;;;;;;;4.95;4.45;;;20.40;99.90;;;;;;5022466;28;20046;-85
2023/09/07 08:14:31;;;;;;;5.57;4.68;;;20.50;99.90;;;;;;5027963;28;20496;-84
2023/09/07 08:16:57;;;;;;;5.55;4.28;;;20.40;99.90;;;;;;5021030;28;20057;-83
2023/09/07 08:19:24;;;;;;;9.68;4.07;;;20.60;99.90;;;;;;5024465;28;20116;-82
2023/09/07 08:21:50;;;;;;;7.35;4.32;;;20.70;99.90;;;;;;5028505;28;20077;-82
2023/09/07 08:24:16;;;;;;;4.97;3.97;;;20.60;99.90;;;;;;5025976;28;20049;-82
2023/09/07 08:26:42;;;;;;;6.82;4.25;;;20.80;99.90;;;;;;5020143;28;20551;-82
2023/09/07 08:29:09;;;;;;;5.85;4.10;;;20.90;99.90;;;;;;5021913;28;20133;-82
2023/09/07 08:31:38;;;;;;;6.88;4.68;;;20.90;99.90;;;;;;5022515;28;20038;-81
2023/09/07 08:34:14;;;;;;;6.07;4.30;;;21.10;99.90;;;;;;5020825;28;20053;-83
2023/09/07 08:36:40;;;;;;;7.50;4.13;;;21.10;99.90;;;;;;5025517;28;20041;-82
2023/09/07 08:39:09;;;;;;;4.68;4.00;;;21.20;99.90;;;;;;5024412;28;20174;-82
2023/09/07 08:41:46;;;;;;;4.20;3.80;;;21.30;99.90;;;;;;5019714;28;20042;-83
2023/09/07 08:44:19;;;;;;;10.18;3.92;;;21.30;99.90;;;;;;5021671;28;20042;-81
2023/09/07 08:46:45;;;;;;;6.60;4.30;;;21.40;99.90;;;;;;5024841;28;20405;-85
2023/09/07 08:49:11;;;;;;;5.07;4.53;;;21.50;99.90;;;;;;5023194;28;20486;-83
2023/09/07 08:51:38;;;;;;;4.07;3.58;;;21.50;99.90;;;;;;5021442;28;20045;-82
2023/09/07 08:54:10;;;;;;;4.30;3.90;;;21.60;99.90;;;;;;5024031;28;20072;-82
2023/09/07 08:56:35;;;;;;;5.82;4.13;;;21.70;99.90;;;;;;5020430;28;20041;-82
2023/09/07 08:59:01;;;;;;;4.82;3.33;;;21.80;99.90;;;;;;5021137;28;20072;-83
2023/09/07 09:01:31;;;;;;;5.95;3.78;;;21.80;99.90;;;;;;5025095;28;20044;-81
2023/09/07 09:03:57;;;;;;;4.38;3.80;;;22.00;99.90;;;;;;5024041;28;20081;-81
2023/09/07 09:06:24;;;;;;;6.18;4.15;;;22.10;99.90;;;;;;5020885;28;20058;-82
2023/09/07 09:08:57;;;;;;;5.03;3.47;;;22.20;99.90;;;;;;5025458;28;20428;-82
2023/09/07 09:11:24;;;;;;;7.93;3.80;;;22.20;99.90;;;;;;5022221;28;20056;-83
2023/09/07 09:13:52;;;;;;;4.97;3.15;;;22.30;99.90;;;;;;5020595;28;20360;-82
2023/09/07 09:16:18;;;;;;;5.38;3.30;;;22.40;99.90;;;;;;5022411;28;20065;-82
2023/09/07 09:18:57;;;;;;;4.97;3.30;;;22.50;99.90;;;;;;5024283;28;20402;-81
2023/09/07 09:21:25;;;;;;;7.40;3.10;;;22.50;99.90;;;;;;5029330;28;20406;-80
2023/09/07 09:23:52;;;;;;;3.50;3.20;;;22.60;99.90;;;;;;5020028;28;20463;-82
2023/09/07 09:26:19;;;;;;;5.60;3.28;;;22.60;99.90;;;;;;5022538;28;20127;-81
2023/09/07 09:28:45;;;;;;;5.05;3.67;;;22.70;99.90;;;;;;5029114;28;20037;-82
2023/09/07 09:31:14;;;;;;;4.03;3.22;;;22.60;99.90;;;;;;5022152;28;20049;-81
2023/09/07 09:33:47;;;;;;;3.88;3.38;;;22.80;99.90;;;;;;5021749;28;20037;-81
2023/09/07 09:36:13;;;;;;;4.00;3.57;;;22.90;99.90;;;;;;5030029;28;20053;-82
2023/09/07 09:38:39;;;;;;;6.80;3.53;;;23.00;99.90;;;;;;5023492;28;20045;-81
2023/09/07 09:41:06;;;;;;;6.32;3.13;;;23.00;99.90;;;;;;5021483;28;20419;-81
2023/09/07 09:43:31;;;;;;;3.55;2.95;;;23.00;99.90;;;;;;5021016;28;20034;-82
2023/09/07 09:45:59;;;;;;;7.05;3.47;;;23.10;99.90;;;;;;5019300;28;20456;-82
2023/09/07 09:48:27;;;;;;;7.78;3.65;;;23.20;99.90;;;;;;5025437;28;20088;-82
2023/09/07 09:50:53;;;;;;;5.00;3.00;;;23.40;99.90;;;;;;5021678;28;20055;-84
2023/09/07 09:53:20;;;;;;;8.70;3.33;;;23.40;99.90;;;;;;5022127;28;20116;-83
2023/09/07 09:55:47;;;;;;;6.22;3.50;;;23.50;99.90;;;;;;5024579;28;20056;-83
2023/09/07 09:58:14;;;;;;;7.60;3.50;;;23.50;99.90;;;;;;5023386;28;20564;-84
2023/09/07 10:00:47;;;;;;;5.10;3.13;;;23.60;99.90;;;;;;5023974;28;20481;-82
2023/09/07 10:03:26;;;;;;;4.93;3.50;;;23.70;99.90;;;;;;5023556;28;20033;-83
2023/09/07 10:05:52;;;;;;;6.80;3.67;;;23.80;99.90;;;;;;5019842;28;20128;-84
2023/09/07 10:08:19;;;;;;;7.32;3.13;;;23.90;99.90;;;;;;5025381;28;20144;-83
2023/09/07 10:10:47;;;;;;;8.88;3.60;;;24.00;99.90;;;;;;5027796;28;20033;-83
2023/09/07 10:13:29;;;;;;;4.93;3.13;;;24.00;99.90;;;;;;5021036;28;20037;-83
2023/09/07 10:16:09;;;;;;;9.40;3.60;;;24.10;99.90;;;;;;5027178;28;20035;-83
2023/09/07 10:18:37;;;;;;;5.18;4.07;;;24.20;99.90;;;;;;5020320;28;20471;-83
2023/09/07 10:21:04;;;;;;;5.65;3.35;;;24.00;99.90;;;;;;5026280;28;20103;-83
2023/09/07 10:23:40;;;;;;;8.15;3.10;;;24.30;99.90;;;;;;5027624;28;20033;-83
2023/09/07 10:26:11;;;;;;;6.55;4.05;;;24.40;99.90;;;;;;5023672;28;20117;-85
2023/09/07 10:28:37;;;;;;;5.40;3.25;;;24.40;99.90;;;;;;5023049;28;20049;-83
2023/09/07 10:31:13;;;;;;;7.32;4.28;;;24.50;99.90;;;;;;5022331;28;20042;-83
2023/09/07 10:33:39;;;;;;;5.10;3.20;;;24.60;99.90;;;;;;5020092;28;20053;-83
2023/09/07 10:36:06;;;;;;;4.72;3.13;;;24.60;99.90;;;;;;5021124;28;20033;-83
2023/09/07 10:38:32;;;;;;;5.53;3.38;;;24.60;99.90;;;;;;5024331;28;20049;-84
2023/09/07 10:41:00;;;;;;;4.50;3.38;;;24.70;99.90;;;;;;5020322;28;20081;-82
2023/09/07 10:43:33;;;;;;;4.20;3.50;;;24.80;99.90;;;;;;5029770;28;20109;-81
2023/09/07 10:46:00;;;;;;;6.50;3.72;;;24.90;99.90;;;;;;5022718;28;20541;-83
2023/09/07 10:48:29;;;;;;;3.40;3.10;;;25.00;99.90;;;;;;5027136;28;20049;-83
2023/09/07 10:50:56;;;;;;;6.28;3.47;;;25.00;99.90;;;;;;5027158;28;20088;-84
2023/09/07 10:53:30;;;;;;;7.30;3.40;;;25.10;99.90;;;;;;5022774;28;20490;-83
2023/09/07 10:56:03;;;;;;;3.92;3.55;;;25.10;99.90;;;;;;5028664;28;20044;-83
2023/09/07 10:58:34;;;;;;;6.85;3.35;;;25.20;99.90;;;;;;5020148;28;20385;-82
2023/09/07 11:01:00;;;;;;;10.40;3.30;;;25.20;99.90;;;;;;5019582;28;20052;-83
2023/09/07 11:03:27;;;;;;;4.45;2.95;;;25.30;99.90;;;;;;5024689;28;20486;-83
2023/09/07 11:06:03;;;;;;;4.63;3.25;;;25.50;99.90;;;;;;5016994;28;20141;-82
2023/09/07 11:08:33;;;;;;;3.30;3.10;;;25.50;99.90;;;;;;5023110;28;20049;-84
2023/09/07 11:10:59;;;;;;;5.40;3.78;;;25.60;99.90;;;;;;5018492;28;20042;-81
2023/09/07 11:13:26;;;;;;;6.88;3.65;;;25.70;99.90;;;;;;5021121;28;20088;-83
2023/09/07 11:15:55;;;;;;;6.00;3.33;;;25.80;99.90;;;;;;5002117;28;20529;-80
2023/09/07 11:18:22;;;;;;;5.20;3.60;;;25.90;99.90;;;;;;5021353;28;20508;-80
2023/09/07 11:20:49;;;;;;;5.07;3.33;;;26.00;99.90;;;;;;5026450;28;20037;-80
2023/09/07 11:23:20;;;;;;;6.28;2.95;;;26.10;99.90;;;;;;5027938;28;20038;-80
2023/09/07 11:25:48;;;;;;;5.10;3.13;;;26.20;99.90;;;;;;5020754;28;20033;-79
2023/09/07 11:28:17;;;;;;;3.35;3.08;;;26.30;99.90;;;;;;5024034;28;20056;-81
2023/09/07 11:30:55;;;;;;;3.80;3.40;;;26.30;99.90;;;;;;5020136;28;20064;-79
2023/09/07 11:33:22;;;;;;;8.70;3.30;;;26.50;99.90;;;;;;5022380;28;20091;-80
2023/09/07 11:35:48;;;;;;;6.65;3.53;;;26.50;99.90;;;;;;5020016;28;20034;-80
2023/09/07 11:38:15;;;;;;;5.45;3.15;;;26.60;99.90;;;;;;5021775;28;20041;-80
2023/09/07 11:40:44;;;;;;;4.57;3.55;;;26.80;99.90;;;;;;5023442;28;20080;-80
2023/09/07 11:43:15;;;;;;;5.22;3.40;;;26.90;99.90;;;;;;5020038;28;20073;-80
2023/09/07 11:45:41;;;;;;;3.70;2.92;;;26.90;99.90;;;;;;5006796;28;20072;-81
2023/09/07 11:48:10;;;;;;;6.85;3.00;;;27.10;99.90;;;;;;5025369;28;20574;-81
2023/09/07 11:50:37;;;;;;;3.22;2.97;;;27.20;99.90;;;;;;5027982;28;20409;-81
2023/09/07 11:53:03;;;;;;;3.08;2.83;;;27.30;99.90;;;;;;5028687;28;20465;-81
2023/09/07 11:55:29;;;;;;;3.55;3.13;;;27.30;99.90;;;;;;5023089;28;20080;-81
2023/09/07 11:57:54;;;;;;;4.97;3.00;;;27.50;99.90;;;;;;5025589;28;20117;-80
2023/09/07 12:00:22;;;;;;;6.05;3.00;;;27.50;99.90;;;;;;5025073;28;20116;-81
2023/09/07 12:02:48;;;;;;;4.72;2.90;;;27.60;99.90;;;;;;5023874;28;20053;-81
2023/09/07 12:05:15;;;;;;;5.95;2.40;;;27.60;99.90;;;;;;5030135;28;20037;-82
2023/09/07 12:07:43;;;;;;;5.43;3.28;;;27.70;99.90;;;;;;5024883;28;20459;-80
2023/09/07 12:10:13;;;;;;;4.53;2.83;;;27.80;99.50;;;;;;5019383;28;20519;-80
2023/09/07 12:12:39;;;;;;;3.40;3.20;;;27.80;98.70;;;;;;5023372;28;20057;-81
2023/09/07 12:15:06;;;;;;;2.72;2.53;;;27.80;97.70;;;;;;5026001;28;20041;-81
2023/09/07 12:17:32;;;;;;;4.20;2.60;;;28.00;97.00;;;;;;5030127;28;20069;-80
2023/09/07 12:19:58;;;;;;;4.95;2.63;;;28.00;96.50;;;;;;5025231;28;20041;-82
2023/09/07 12:22:24;;;;;;;4.68;2.67;;;28.10;96.00;;;;;;5024636;28;20048;-81
2023/09/07 12:24:49;;;;;;;3.72;2.88;;;27.70;95.90;;;;;;5023062;28;20072;-82
2023/09/07 12:27:15;;;;;;;2.92;2.65;;;28.20;96.10;;;;;;5026568;28;20052;-81
2023/09/07 12:29:41;;;;;;;4.82;2.67;;;28.30;96.10;;;;;;5025719;28;20160;-81
2023/09/07 12:32:07;;;;;;;3.85;2.60;;;28.40;96.30;;;;;;5023935;28;20029;-81
2023/09/07 12:34:32;;;;;;;3.97;2.30;;;28.50;95.80;;;;;;5024770;28;20041;-81
2023/09/07 12:36:58;;;;;;;4.60;2.50;;;28.60;95.80;;;;;;5022237;28;20033;-82
2023/09/07 12:39:24;;;;;;;4.95;2.47;;;28.70;95.70;;;;;;5022364;28;20045;-81
2023/09/07 12:41:50;;;;;;;7.38;2.92;;;28.80;95.50;;;;;;5027860;28;20053;-80
2023/09/07 12:44:18;;;;;;;4.38;2.55;;;28.80;94.60;;;;;;5022274;28;20034;-81